Time;durP1;ratioP1;P1;durP2;ratioP2;P2;SDS_P1;SDS_P2;PMS_P1;PMS_P2;Temp;Humidity;BMP_temperature;BMP_pressure;BME280_temperature;BME280_humidity;BME280_pressure;Samples;Min_cycle;Max_cycle;Signal;HPM_P1;HPM_P2
2024/03/03 00:00:31;;;;;;;9.77;5.93;;;;;;;10.50;100.00;101423.25;2073244;28;20248;-63
2024/03/03 00:01:31;;;;;;;9.50;5.70;;;;;;;10.53;100.00;101428.00;2074685;28;20433;-62
2024/03/03 00:02:32;;;;;;;7.90;5.47;;;;;;;10.56;100.00;101420.84;2081262;28;20177;-63
2024/03/03 00:03:32;;;;;;;7.80;5.03;;;;;;;10.57;100.00;101422.41;2081362;28;20278;-63
2024/03/03 00:04:33;;;;;;;12.33;5.80;;;;;;;10.58;100.00;101419.22;2081341;28;20188;-63
2024/03/03 00:05:33;;;;;;;8.93;5.90;;;;;;;10.55;100.00;101413.72;2081226;28;20185;-63
2024/03/03 00:06:34;;;;;;;13.23;6.00;;;;;;;10.54;100.00;101417.66;2081445;28;20185;-62
2024/03/03 00:07:34;;;;;;;10.23;6.23;;;;;;;10.55;100.00;101424.81;2081278;28;20276;-62
2024/03/03 00:08:35;;;;;;;10.17;5.93;;;;;;;10.57;100.00;101417.66;2081318;28;20184;-62
2024/03/03 00:09:35;;;;;;;7.43;5.07;;;;;;;10.57;100.00;101416.84;2081231;28;20255;-62
2024/03/03 00:10:36;;;;;;;8.53;5.13;;;;;;;10.55;100.00;101414.50;2081290;28;20185;-63
2024/03/03 00:11:36;;;;;;;8.27;5.67;;;;;;;10.54;100.00;101412.94;2081424;28;20256;-63
2024/03/03 00:12:38;;;;;;;8.23;5.47;;;;;;;10.52;100.00;101415.34;2082206;28;20282;-63
2024/03/03 00:13:38;;;;;;;7.33;5.60;;;;;;;10.52;100.00;101414.53;2082764;28;20271;-63
2024/03/03 00:14:39;;;;;;;7.50;5.63;;;;;;;10.51;100.00;101424.81;2082992;28;20427;-63
2024/03/03 00:15:39;;;;;;;14.60;5.37;;;;;;;10.55;100.00;101416.50;2082968;28;20173;-63
2024/03/03 00:16:43;;;;;;;11.57;5.57;;;;;;;10.54;100.00;101417.66;2082918;28;20191;-63
2024/03/03 00:17:44;;;;;;;8.23;5.47;;;;;;;10.53;100.00;101411.38;2082783;28;20181;-62
2024/03/03 00:18:44;;;;;;;9.37;5.90;;;;;;;10.52;100.00;101412.56;2082733;28;20433;-63
2024/03/03 00:19:45;;;;;;;9.37;5.73;;;;;;;10.50;100.00;101409.41;2082937;28;20173;-63
2024/03/03 00:20:45;;;;;;;7.37;5.40;;;;;;;10.52;100.00;101418.09;2082722;28;20188;-63
2024/03/03 00:21:46;;;;;;;7.87;5.03;;;;;;;10.55;100.00;101410.97;2082697;28;20279;-62
2024/03/03 00:22:46;;;;;;;10.40;5.17;;;;;;;10.53;100.00;101408.59;2082868;28;20188;-63
2024/03/03 00:23:47;;;;;;;8.83;5.47;;;;;;;10.51;100.00;101410.97;2082792;28;20189;-62
2024/03/03 00:24:47;;;;;;;8.70;5.87;;;;;;;10.52;100.00;101411.75;2082792;28;20184;-63
2024/03/03 00:25:48;;;;;;;12.63;5.83;;;;;;;10.52;100.00;101409.00;2082850;28;20598;-62
2024/03/03 00:26:49;;;;;;;7.83;5.20;;;;;;;10.10;100.00;101346.50;2082671;28;20181;-63
2024/03/03 00:27:49;;;;;;;9.33;5.23;;;;;;;10.50;100.00;101409.41;2082831;28;20231;-63
2024/03/03 00:28:50;;;;;;;12.13;5.53;;;;;;;10.17;100.00;101378.91;2082707;28;20424;-62
2024/03/03 00:29:50;;;;;;;8.93;5.60;;;;;;;10.51;100.00;101418.50;2082993;28;20216;-63
2024/03/03 00:30:51;;;;;;;9.30;5.43;;;;;;;10.45;100.00;101404.31;2082792;28;20186;-63
2024/03/03 00:31:51;;;;;;;10.90;5.10;;;;;;;10.57;100.00;101406.56;2077018;28;20679;-62
2024/03/03 00:32:52;;;;;;;9.40;5.97;;;;;;;10.59;100.00;101409.69;2077839;28;20669;-62
2024/03/03 00:33:53;;;;;;;9.40;4.97;;;;;;;10.63;100.00;101410.47;2082760;28;20174;-63
2024/03/03 00:34:53;;;;;;;15.17;4.57;;;;;;;10.05;100.00;101318.50;2082657;28;20251;-63
2024/03/03 00:35:54;;;;;;;7.37;4.83;;;;;;;10.65;100.00;101405.28;2082578;28;20173;-63
2024/03/03 00:36:54;;;;;;;6.73;4.77;;;;;;;10.65;100.00;101410.06;2082721;28;20255;-63
2024/03/03 00:37:55;;;;;;;9.97;5.43;;;;;;;10.63;100.00;101418.78;2082324;28;20217;-62
2024/03/03 00:38:55;;;;;;;7.60;4.87;;;;;;;10.62;100.00;101417.22;2082611;28;20188;-63
2024/03/03 00:39:56;;;;;;;8.00;5.17;;;;;;;10.64;100.00;101412.03;2082647;28;20193;-62
2024/03/03 00:40:56;;;;;;;7.63;5.10;;;;;;;10.64;100.00;101405.69;2082644;28;20184;-62
2024/03/03 00:41:57;;;;;;;7.20;4.73;;;;;;;10.61;100.00;101404.53;2082534;28;20180;-62
2024/03/03 00:42:57;;;;;;;8.87;4.90;;;;;;;10.56;100.00;101393.13;2082753;28;20184;-63
2024/03/03 00:43:58;;;;;;;9.17;4.83;;;;;;;10.65;100.00;101401.72;2082599;28;20554;-63
2024/03/03 00:44:58;;;;;;;9.37;5.20;;;;;;;10.63;100.00;101393.81;2082521;28;20558;-63
2024/03/03 00:45:59;;;;;;;12.37;5.40;;;;;;;10.63;100.00;101395.78;2082469;28;20177;-63
2024/03/03 00:46:59;;;;;;;8.60;4.90;;;;;;;10.63;100.00;101393.03;2082603;28;20177;-63
2024/03/03 00:48:00;;;;;;;8.10;5.70;;;;;;;10.02;100.00;101297.94;2082663;28;20179;-63
2024/03/03 00:49:00;;;;;;;8.53;5.03;;;;;;;10.68;100.00;101398.13;2082473;28;20181;-63
2024/03/03 00:50:01;;;;;;;7.87;5.17;;;;;;;10.67;100.00;101393.78;2082569;28;20255;-63
2024/03/03 00:51:02;;;;;;;9.07;5.30;;;;;;;10.57;100.00;101376.09;2082553;28;20184;-63
2024/03/03 00:52:02;;;;;;;9.30;5.20;;;;;;;10.67;100.00;101396.53;2082604;28;20263;-63
2024/03/03 00:53:03;;;;;;;7.90;5.23;;;;;;;10.68;100.00;101395.34;2082763;28;20173;-63
2024/03/03 00:54:04;;;;;;;8.03;4.93;;;;;;;10.68;100.00;101395.34;2082623;28;20174;-63
2024/03/03 00:55:04;;;;;;;7.80;4.67;;;;;;;10.67;100.00;101385.47;2082522;28;20181;-63
2024/03/03 00:56:05;;;;;;;9.17;4.70;;;;;;;10.36;100.00;101345.06;2082583;28;20185;-63
2024/03/03 00:57:06;;;;;;;7.10;4.73;;;;;;;10.64;100.00;101389.84;2090101;28;20176;-63
2024/03/03 00:58:07;;;;;;;7.57;4.93;;;;;;;10.56;100.00;101373.72;2090132;28;20767;-62
2024/03/03 00:59:07;;;;;;;7.60;4.80;;;;;;;10.72;100.00;101388.53;2082597;28;20231;-63
2024/03/03 01:00:09;;;;;;;8.07;5.37;;;;;;;10.76;100.00;101383.75;2082375;28;20474;-62
2024/03/03 01:01:11;;;;;;;9.70;4.70;;;;;;;10.62;100.00;101352.66;2082482;28;20227;-63
2024/03/03 01:02:11;;;;;;;7.73;5.17;;;;;;;10.11;100.00;101283.63;2082438;28;20515;-63
2024/03/03 01:03:12;;;;;;;10.47;5.60;;;;;;;10.77;100.00;101379.78;2082580;28;20415;-63
2024/03/03 01:04:13;;;;;;;8.97;4.80;;;;;;;10.76;100.00;101374.66;2082445;28;20201;-63
2024/03/03 01:05:13;;;;;;;7.73;4.80;;;;;;;10.72;100.00;101379.47;2082429;28;20183;-63
2024/03/03 01:06:14;;;;;;;9.23;5.27;;;;;;;10.72;100.00;101377.47;2082477;28;20181;-63
2024/03/03 01:07:15;;;;;;;7.33;4.70;;;;;;;10.70;100.00;101373.53;2082354;28;20618;-63
2024/03/03 01:08:15;;;;;;;8.33;4.77;;;;;;;10.70;100.00;101377.09;2082491;28;20184;-63
2024/03/03 01:09:17;;;;;;;7.17;4.67;;;;;;;10.71;100.00;101369.56;2082477;28;20435;-63
2024/03/03 01:10:18;;;;;;;8.77;5.17;;;;;;;10.01;100.00;101256.78;2089892;28;20188;-63
2024/03/03 01:11:18;;;;;;;7.37;4.73;;;;;;;10.75;100.00;101373.88;2090043;28;20488;-62
2024/03/03 01:12:19;;;;;;;7.00;4.97;;;;;;;10.74;100.00;101377.84;2081152;28;20215;-63
2024/03/03 01:13:20;;;;;;;7.93;4.63;;;;;;;10.73;100.00;101370.72;2082477;28;20204;-63
2024/03/03 01:14:23;;;;;;;7.53;5.00;;;;;;;10.23;100.00;101292.16;2082495;28;20174;-62
2024/03/03 01:15:23;;;;;;;9.43;5.00;;;;;;;10.67;100.00;101360.50;2082221;28;20184;-62
2024/03/03 01:16:24;;;;;;;8.07;5.20;;;;;;;10.72;100.00;101360.81;2082432;28;20424;-63
2024/03/03 01:17:24;;;;;;;8.83;4.87;;;;;;;10.69;100.00;101371.97;2082246;28;20330;-63
2024/03/03 01:18:25;;;;;;;10.00;5.50;;;;;;;10.67;100.00;101368.81;2082538;28;20184;-63
2024/03/03 01:19:25;;;;;;;7.37;4.80;;;;;;;10.66;100.00;101368.03;2082319;28;20262;-63
2024/03/03 01:20:26;;;;;;;9.17;5.03;;;;;;;10.67;100.00;101372.38;2082434;28;20181;-63
2024/03/03 01:21:27;;;;;;;8.80;5.20;;;;;;;10.62;100.00;101372.06;2082321;28;20212;-63
2024/03/03 01:22:27;;;;;;;10.07;5.10;;;;;;;10.62;100.00;101375.63;2082334;28;20221;-63
2024/03/03 01:23:28;;;;;;;8.63;5.20;;;;;;;10.61;100.00;101374.03;2082260;28;20225;-63
2024/03/03 01:24:29;;;;;;;7.57;4.73;;;;;;;10.61;100.00;101376.03;2082433;28;20177;-63
2024/03/03 01:25:30;;;;;;;7.80;5.27;;;;;;;10.62;100.00;101374.84;2082392;28;20235;-63
2024/03/03 01:26:30;;;;;;;6.77;4.97;;;;;;;10.58;100.00;101363.78;2082341;28;20481;-62
2024/03/03 01:27:31;;;;;;;7.73;4.73;;;;;;;10.60;100.00;101366.16;2082160;28;20185;-63
2024/03/03 01:28:31;;;;;;;9.47;5.13;;;;;;;10.58;100.00;101365.75;2089957;28;20179;-63
2024/03/03 01:29:32;;;;;;;9.33;5.50;;;;;;;9.99;100.00;101270.28;2089878;28;20329;-63
2024/03/03 01:30:32;;;;;;;8.73;4.90;;;;;;;10.61;100.00;101362.94;2082411;28;20170;-62
2024/03/03 01:31:33;;;;;;;8.67;5.27;;;;;;;10.61;100.00;101362.19;2082189;28;20709;-62
2024/03/03 01:32:34;;;;;;;8.03;5.23;;;;;;;10.61;100.00;101370.50;2077268;28;20216;-63
2024/03/03 01:33:34;;;;;;;6.80;4.63;;;;;;;10.65;100.00;101368.47;2074215;28;20176;-63
2024/03/03 01:34:35;;;;;;;8.60;5.00;;;;;;;10.66;100.00;101367.25;2081263;28;20185;-63
2024/03/03 01:35:35;;;;;;;10.67;5.30;;;;;;;10.64;100.00;101366.88;2082310;28;20196;-63
2024/03/03 01:36:36;;;;;;;7.47;5.07;;;;;;;10.63;100.00;101357.00;2082156;28;20327;-63
2024/03/03 01:37:36;;;;;;;7.07;4.93;;;;;;;10.62;100.00;101364.53;2081956;28;20186;-63
2024/03/03 01:38:38;;;;;;;8.37;4.97;;;;;;;10.62;100.00;101358.19;2082249;28;20181;-63
2024/03/03 01:39:38;;;;;;;8.97;4.90;;;;;;;10.60;100.00;101360.63;2082298;28;20643;-62
2024/03/03 01:40:39;;;;;;;7.60;5.17;;;;;;;10.59;100.00;101348.72;2082162;28;20803;-63
2024/03/03 01:41:45;;;;;;;8.63;5.43;;;;;;;10.57;100.00;101353.91;2082109;28;20701;-63
2024/03/03 01:42:45;;;;;;;8.03;4.70;;;;;;;10.53;100.00;101355.13;2082174;28;20235;-63
2024/03/03 01:43:46;;;;;;;7.13;5.23;;;;;;;10.51;100.00;101352.00;2082216;28;20515;-62
2024/03/03 01:44:47;;;;;;;5.97;4.47;;;;;;;10.54;100.00;101346.41;2075482;28;20216;-63
2024/03/03 01:45:47;;;;;;;7.57;4.90;;;;;;;10.54;100.00;101356.69;2081586;28;20424;-62
2024/03/03 01:46:48;;;;;;;7.10;4.87;;;;;;;10.55;100.00;101350.75;2080873;28;20227;-63
2024/03/03 01:47:53;;;;;;;8.73;4.97;;;;;;;9.84;100.00;101239.19;2074423;28;20189;-63
2024/03/03 01:48:54;;;;;;;6.80;4.80;;;;;;;10.58;100.00;101349.13;2081250;28;20192;-63
2024/03/03 01:49:56;;;;;;;6.33;4.57;;;;;;;10.59;100.00;101356.25;2081220;28;20537;-63
2024/03/03 01:50:57;;;;;;;8.33;5.60;;;;;;;9.64;100.00;101209.75;2081354;28;20424;-63
2024/03/03 01:52:00;;;;;;;8.77;4.80;;;;;;;10.54;100.00;101356.69;2082224;28;20937;-62
2024/03/03 01:53:01;;;;;;;7.63;4.80;;;;;;;10.55;100.00;101352.75;2082010;28;20472;-63
2024/03/03 01:54:04;;;;;;;6.57;4.80;;;;;;;10.49;100.00;101360.72;2076594;28;20495;-62
2024/03/03 01:55:05;;;;;;;6.87;4.23;;;;;;;10.40;100.00;101343.03;2079734;28;20419;-62
2024/03/03 01:56:06;;;;;;;7.60;4.73;;;;;;;10.46;100.00;101352.47;2082081;28;20798;-62
2024/03/03 01:57:19;;;;;;;6.87;4.43;;;;;;;10.40;100.00;101349.34;2082023;28;20450;-63
2024/03/03 01:58:19;;;;;;;6.57;4.13;;;;;;;9.62;100.00;101239.81;2089688;28;20495;-63
2024/03/03 01:59:20;;;;;;;8.10;4.93;;;;;;;10.31;100.00;101342.75;2089679;28;21021;-63
2024/03/03 02:00:21;;;;;;;5.90;4.27;;;;;;;10.30;100.00;101344.72;2082043;28;20177;-63
2024/03/03 02:01:23;;;;;;;8.43;5.07;;;;;;;9.68;100.00;101255.56;2082010;28;20210;-63
2024/03/03 02:02:27;;;;;;;7.83;4.77;;;;;;;10.25;100.00;101342.41;2082013;28;20188;-63
2024/03/03 02:03:29;;;;;;;8.50;4.60;;;;;;;10.22;100.00;101340.47;2081981;28;20429;-63
2024/03/03 02:04:30;;;;;;;6.50;4.33;;;;;;;9.33;100.00;101200.56;2081884;28;20542;-62
2024/03/03 02:05:31;;;;;;;15.03;4.93;;;;;;;10.18;100.00;101341.69;2081941;28;20412;-63
2024/03/03 02:06:33;;;;;;;7.13;4.27;;;;;;;10.14;100.00;101335.41;2081819;28;20561;-62
2024/03/03 02:07:34;;;;;;;6.73;4.37;;;;;;;10.10;100.00;101338.19;2081990;28;20415;-63
2024/03/03 02:08:35;;;;;;;8.87;5.20;;;;;;;10.07;100.00;101339.03;2082023;28;20426;-63
2024/03/03 02:09:36;;;;;;;8.13;4.00;;;;;;;10.09;100.00;101339.41;2081865;28;20270;-63
2024/03/03 02:10:38;;;;;;;12.43;4.97;;;;;;;10.11;100.00;101342.56;2081902;28;20510;-63
2024/03/03 02:11:39;;;;;;;7.27;4.37;;;;;;;10.04;100.00;101334.31;2081983;28;20419;-63
2024/03/03 02:12:40;;;;;;;7.10;4.57;;;;;;;10.00;100.00;101336.31;2081984;28;20430;-63
2024/03/03 02:13:41;;;;;;;6.90;4.33;;;;;;;9.98;100.00;101360.06;2081860;28;20196;-63
2024/03/03 02:14:41;;;;;;;8.87;4.40;;;;;;;9.96;100.00;101348.63;2081907;28;20526;-63
2024/03/03 02:15:42;;;;;;;6.73;4.23;;;;;;;9.64;100.00;101303.84;2081846;28;20189;-62
2024/03/03 02:16:42;;;;;;;5.47;4.03;;;;;;;9.90;100.00;101359.34;2081888;28;20177;-63
2024/03/03 02:17:43;;;;;;;5.60;4.03;;;;;;;9.89;100.00;101343.16;2081778;28;20184;-63
2024/03/03 02:18:44;;;;;;;7.17;4.37;;;;;;;9.86;100.00;101338.44;2081780;28;20173;-63
2024/03/03 02:19:44;;;;;;;6.30;4.00;;;;;;;9.86;100.00;101344.75;2081933;28;20189;-63
2024/03/03 02:20:45;;;;;;;8.53;4.73;;;;;;;9.81;100.00;101342.44;2081819;28;20173;-63
2024/03/03 02:21:45;;;;;;;7.17;4.20;;;;;;;9.76;100.00;101339.31;2081830;28;20173;-63
2024/03/03 02:22:46;;;;;;;5.63;3.67;;;;;;;9.75;100.00;101337.75;2081952;28;20192;-63
2024/03/03 02:23:46;;;;;;;7.57;4.30;;;;;;;9.74;100.00;101342.50;2081787;28;20199;-63
2024/03/03 02:24:47;;;;;;;5.90;4.10;;;;;;;9.71;100.00;101340.56;2081837;28;20180;-63
2024/03/03 02:25:47;;;;;;;6.23;4.47;;;;;;;9.71;100.00;101339.75;2081779;28;20315;-63
2024/03/03 02:26:48;;;;;;;6.07;4.30;;;;;;;9.68;100.00;101346.91;2081654;28;20760;-63
2024/03/03 02:27:49;;;;;;;6.17;4.33;;;;;;;9.70;100.00;101347.28;2081931;28;20183;-63
2024/03/03 02:28:51;;;;;;;6.30;4.20;;;;;;;9.69;100.00;101342.94;2081750;28;20746;-63
2024/03/03 02:29:51;;;;;;;6.43;4.10;;;;;;;9.66;100.00;101349.28;2081802;28;20255;-63
2024/03/03 02:30:52;;;;;;;5.63;4.27;;;;;;;9.64;100.00;101350.91;2081874;28;20421;-63
2024/03/03 02:31:52;;;;;;;7.03;5.00;;;;;;;9.64;100.00;101345.38;2081821;28;20215;-63
2024/03/03 02:32:53;;;;;;;7.37;4.00;;;;;;;9.63;100.00;101335.50;2081679;28;20173;-63
2024/03/03 02:33:53;;;;;;;5.87;3.70;;;;;;;9.62;100.00;101345.75;2081782;28;20188;-63
2024/03/03 02:34:54;;;;;;;6.30;4.00;;;;;;;9.64;100.00;101337.84;2081339;28;20658;-63
2024/03/03 02:35:54;;;;;;;5.40;3.50;;;;;;;9.64;100.00;101340.59;2081629;28;20262;-63
2024/03/03 02:36:55;;;;;;;7.87;4.27;;;;;;;9.64;100.00;101342.59;2081762;28;20205;-63
2024/03/03 02:37:55;;;;;;;5.57;3.70;;;;;;;9.62;100.00;101343.00;2081514;28;20675;-63
2024/03/03 02:38:57;;;;;;;6.10;3.83;;;;;;;9.63;100.00;101361.16;2081685;28;20714;-63
2024/03/03 02:39:57;;;;;;;6.43;3.80;;;;;;;9.01;100.00;101238.78;2081556;28;20172;-63
2024/03/03 02:40:58;;;;;;;5.70;3.37;;;;;;;9.67;100.00;101344.53;2081635;28;20427;-63
2024/03/03 02:41:58;;;;;;;5.83;3.87;;;;;;;9.42;100.00;101302.44;2081631;28;20266;-63
2024/03/03 02:43:03;;;;;;;5.83;4.00;;;;;;;9.65;100.00;101339.44;2081760;28;20180;-62
2024/03/03 02:44:03;;;;;;;5.87;3.43;;;;;;;9.23;100.00;101275.34;2081764;28;20192;-62
2024/03/03 02:45:05;;;;;;;6.13;4.10;;;;;;;9.64;100.00;101342.59;2081735;28;20943;-63
2024/03/03 02:46:05;;;;;;;7.27;4.23;;;;;;;9.63;100.00;101346.56;2080899;28;20173;-63
2024/03/03 02:47:06;;;;;;;9.30;4.47;;;;;;;9.22;100.00;101280.09;2080899;28;21002;-62
2024/03/03 02:48:06;;;;;;;6.03;3.97;;;;;;;9.63;100.00;101336.25;2081669;28;20183;-63
2024/03/03 02:49:07;;;;;;;6.83;4.00;;;;;;;9.64;100.00;101342.59;2089096;28;20164;-63
2024/03/03 02:50:07;;;;;;;6.13;3.97;;;;;;;9.59;100.00;101329.97;2089370;28;20704;-62
2024/03/03 02:51:08;;;;;;;5.23;3.60;;;;;;;9.68;100.00;101346.91;2081694;28;20199;-63
2024/03/03 02:52:09;;;;;;;5.73;3.77;;;;;;;9.68;100.00;101348.91;2081849;28;20548;-62
2024/03/03 02:53:09;;;;;;;6.53;4.00;;;;;;;9.63;100.00;101333.50;2081719;28;20186;-63
2024/03/03 02:54:10;;;;;;;5.37;3.73;;;;;;;9.69;100.00;101340.16;2081533;28;20179;-62
2024/03/03 02:55:10;;;;;;;5.97;3.70;;;;;;;9.78;100.00;101337.72;2081667;28;20559;-63
2024/03/03 02:56:11;;;;;;;4.80;3.90;;;;;;;9.78;100.00;101340.47;2081793;28;20170;-62
2024/03/03 02:57:12;;;;;;;7.37;3.57;;;;;;;9.75;100.00;101344.09;2081398;28;20184;-62
2024/03/03 02:58:12;;;;;;;7.93;3.83;;;;;;;9.65;100.00;101325.59;2081562;28;20211;-63
2024/03/03 02:59:13;;;;;;;6.37;4.13;;;;;;;9.77;100.00;101346.41;2081599;28;20184;-62
2024/03/03 03:00:13;;;;;;;6.53;4.57;;;;;;;9.75;100.00;101338.53;2081522;28;20239;-63
2024/03/03 03:01:14;;;;;;;6.23;4.20;;;;;;;9.84;100.00;101349.91;2081481;28;20181;-63
2024/03/03 03:02:15;;;;;;;9.13;4.50;;;;;;;9.80;100.00;101351.94;2081522;28;20184;-63
2024/03/03 03:03:15;;;;;;;6.63;4.43;;;;;;;9.16;100.00;101253.28;2081597;28;20174;-63
2024/03/03 03:04:16;;;;;;;9.60;5.00;;;;;;;9.62;100.00;101322.81;2081631;28;20183;-63
2024/03/03 03:05:16;;;;;;;7.50;4.83;;;;;;;9.81;100.00;101347.97;2089053;28;20184;-62
2024/03/03 03:06:17;;;;;;;6.80;4.40;;;;;;;9.77;100.00;101346.41;2089009;28;20249;-63
2024/03/03 03:07:17;;;;;;;7.67;4.70;;;;;;;9.81;100.00;101350.75;2081608;28;20184;-63
2024/03/03 03:08:18;;;;;;;6.60;4.17;;;;;;;9.77;100.00;101357.50;2081529;28;20184;-63
2024/03/03 03:09:18;;;;;;;8.30;4.20;;;;;;;9.77;100.00;101358.28;2081396;28;20724;-63
2024/03/03 03:10:20;;;;;;;7.63;4.30;;;;;;;9.75;100.00;101355.16;2081309;28;20214;-63
2024/03/03 03:11:21;;;;;;;7.80;4.57;;;;;;;9.54;100.00;101330.41;2081536;28;20171;-62
2024/03/03 03:12:21;;;;;;;7.37;4.70;;;;;;;9.73;100.00;101359.53;2081349;28;20427;-63
2024/03/03 03:13:22;;;;;;;10.03;5.33;;;;;;;9.70;100.00;101355.59;2081580;28;20185;-63
2024/03/03 03:14:26;;;;;;;5.83;4.40;;;;;;;9.65;100.00;101355.22;2081577;28;20182;-62
2024/03/03 03:15:28;;;;;;;7.77;3.90;;;;;;;9.60;100.00;101352.91;2081543;28;20203;-63
2024/03/03 03:16:28;;;;;;;6.83;4.33;;;;;;;9.60;100.00;101361.19;2081508;28;20435;-63
2024/03/03 03:17:29;;;;;;;7.43;4.40;;;;;;;9.59;100.00;101363.16;2081599;28;20992;-63
2024/03/03 03:18:29;;;;;;;6.10;4.13;;;;;;;9.63;100.00;101361.16;2081569;28;20646;-63
2024/03/03 03:19:32;;;;;;;7.13;4.93;;;;;;;9.65;100.00;101361.56;2081525;28;20685;-63
2024/03/03 03:20:34;;;;;;;7.03;4.50;;;;;;;9.65;100.00;101360.78;2081425;28;20184;-63
2024/03/03 03:21:34;;;;;;;6.70;3.73;;;;;;;9.73;100.00;101370.59;2081494;28;20438;-62
2024/03/03 03:22:35;;;;;;;8.87;4.70;;;;;;;9.75;100.00;101365.44;2081438;28;20461;-63
2024/03/03 03:23:36;;;;;;;6.77;4.27;;;;;;;8.96;100.00;101241.22;2081473;28;20195;-63
2024/03/03 03:24:36;;;;;;;7.20;4.57;;;;;;;9.79;100.00;101368.97;2081550;28;20934;-62
2024/03/03 03:25:37;;;;;;;9.30;5.10;;;;;;;9.78;100.00;101365.38;2081233;28;20268;-63
2024/03/03 03:26:37;;;;;;;5.80;4.20;;;;;;;9.83;100.00;101364.94;2081412;28;20177;-62
2024/03/03 03:27:38;;;;;;;5.77;4.00;;;;;;;9.84;100.00;101368.53;2081469;28;20204;-63
2024/03/03 03:28:41;;;;;;;6.93;4.90;;;;;;;9.87;100.00;101362.16;2081608;28;20211;-62
2024/03/03 03:29:41;;;;;;;8.33;5.10;;;;;;;9.88;100.00;101370.03;2078247;28;20181;-62
2024/03/03 03:30:42;;;;;;;7.70;4.40;;;;;;;9.90;100.00;101366.88;2081274;28;20505;-62
2024/03/03 03:33:01;;;;;;;6.37;4.43;;;;;;;9.94;100.00;101356.56;2080957;28;20179;-63
2024/03/03 03:34:02;;;;;;;5.50;4.10;;;;;;;9.91;100.00;101360.94;2081548;28;20461;-63
2024/03/03 03:35:03;;;;;;;6.77;4.33;;;;;;;9.94;100.00;101362.09;2081486;28;20175;-63
2024/03/03 03:36:09;;;;;;;6.93;4.33;;;;;;;9.98;100.00;101368.38;2081530;28;20173;-63
2024/03/03 03:37:09;;;;;;;8.17;4.30;;;;;;;9.98;100.00;101371.13;2081421;28;20417;-63
2024/03/03 03:38:10;;;;;;;7.57;4.10;;;;;;;9.97;100.00;101370.38;2081217;28;20472;-63
2024/03/03 03:39:12;;;;;;;6.77;4.40;;;;;;;9.93;100.00;101369.59;2081288;28;20237;-63
2024/03/03 03:40:13;;;;;;;7.07;4.30;;;;;;;9.88;100.00;101366.47;2089010;28;20188;-63
2024/03/03 03:41:14;;;;;;;7.63;4.40;;;;;;;9.53;100.00;101305.94;2089071;28;20932;-63
2024/03/03 03:42:14;;;;;;;7.07;4.77;;;;;;;9.90;100.00;101370.41;2081477;28;20808;-63
2024/03/03 03:43:15;;;;;;;6.20;4.07;;;;;;;8.75;100.00;101191.59;2081455;28;20569;-63
2024/03/03 03:44:18;;;;;;;9.10;5.03;;;;;;;9.87;100.00;101362.94;2081598;28;20175;-62
2024/03/03 03:45:19;;;;;;;7.10;4.13;;;;;;;9.82;100.00;101360.63;2081354;28;20183;-63
2024/03/03 03:46:20;;;;;;;7.60;4.80;;;;;;;9.82;100.00;101357.84;2079926;28;20484;-63
2024/03/03 03:47:20;;;;;;;6.97;4.27;;;;;;;9.90;100.00;101367.66;2089551;28;21027;-63
2024/03/03 03:48:23;;;;;;;6.40;4.10;;;;;;;9.41;100.00;101303.66;2090755;28;20654;-62
2024/03/03 03:49:23;;;;;;;4.93;4.00;;;;;;;9.96;100.00;101377.09;2083031;28;20183;-63
2024/03/03 03:50:24;;;;;;;8.40;4.83;;;;;;;10.02;100.00;101369.13;2082722;28;21077;-63
2024/03/03 03:51:26;;;;;;;7.80;5.10;;;;;;;10.05;100.00;101377.41;2082924;28;20190;-63
2024/03/03 03:52:27;;;;;;;8.73;4.40;;;;;;;9.32;100.00;101245.25;2082976;28;20177;-63
2024/03/03 03:53:28;;;;;;;6.97;4.53;;;;;;;10.13;100.00;101370.63;2083036;28;20955;-62
2024/03/03 03:54:28;;;;;;;8.07;4.37;;;;;;;10.14;100.00;101366.66;2083068;28;20801;-62
2024/03/03 03:55:29;;;;;;;7.00;4.67;;;;;;;10.18;100.00;101363.84;2083050;28;20663;-63
2024/03/03 03:56:36;;;;;;;6.60;4.43;;;;;;;10.19;100.00;101368.22;2082690;28;20189;-63
2024/03/03 03:57:37;;;;;;;6.10;4.50;;;;;;;10.21;100.00;101363.81;2083110;28;20228;-63
2024/03/03 03:58:37;;;;;;;7.10;4.73;;;;;;;10.20;100.00;101365.00;2082838;28;20501;-62
2024/03/03 03:59:38;;;;;;;9.47;4.80;;;;;;;10.16;100.00;101357.94;2082939;28;20422;-63
2024/03/03 04:00:38;;;;;;;6.43;4.00;;;;;;;10.18;100.00;101363.84;2079918;28;20670;-63
2024/03/03 04:01:39;;;;;;;7.80;4.43;;;;;;;10.17;100.00;101371.38;2083079;28;20179;-63
2024/03/03 04:02:40;;;;;;;8.77;4.33;;;;;;;9.87;100.00;101332.50;2083048;28;20179;-62
2024/03/03 04:03:40;;;;;;;7.70;4.30;;;;;;;10.09;100.00;101369.88;2082801;28;20181;-63
2024/03/03 04:04:41;;;;;;;6.90;4.00;;;;;;;10.14;100.00;101366.66;2082927;28;20177;-63
2024/03/03 04:05:41;;;;;;;6.00;4.40;;;;;;;10.09;100.00;101347.72;2082987;28;20184;-63
2024/03/03 04:06:42;;;;;;;8.27;4.10;;;;;;;10.10;100.00;101365.91;2090488;28;20270;-63
2024/03/03 04:07:42;;;;;;;6.13;3.77;;;;;;;10.17;100.00;101360.31;2090674;28;20236;-63
2024/03/03 04:08:43;;;;;;;8.30;5.17;;;;;;;10.18;100.00;101372.16;2082601;28;20199;-63
2024/03/03 04:09:43;;;;;;;6.83;4.70;;;;;;;10.11;100.00;101363.94;2082793;28;20239;-63
2024/03/03 04:10:44;;;;;;;7.87;4.83;;;;;;;9.26;100.00;101238.56;2082887;28;20196;-63
2024/03/03 04:11:44;;;;;;;7.80;4.80;;;;;;;10.08;100.00;101365.53;2082899;28;20551;-63
2024/03/03 04:12:45;;;;;;;6.80;5.13;;;;;;;10.07;100.00;101366.72;2082784;28;20185;-63
2024/03/03 04:13:49;;;;;;;7.97;5.10;;;;;;;10.08;100.00;101361.97;2082938;28;20174;-62
2024/03/03 04:14:50;;;;;;;8.63;5.23;;;;;;;10.06;100.00;101364.38;2079412;28;20215;-62
2024/03/03 04:15:50;;;;;;;10.60;5.73;;;;;;;10.04;100.00;101356.47;2082617;28;20925;-62
2024/03/03 04:16:51;;;;;;;8.47;5.23;;;;;;;9.95;100.00;101358.13;2082736;28;20212;-63
2024/03/03 04:17:51;;;;;;;8.03;5.07;;;;;;;9.96;100.00;101370.75;2082864;28;20180;-63
2024/03/03 04:18:52;;;;;;;8.60;5.40;;;;;;;9.92;100.00;101362.50;2082708;28;20195;-63
2024/03/03 04:19:52;;;;;;;8.00;5.23;;;;;;;9.93;100.00;101354.97;2082902;28;20263;-63
2024/03/03 04:20:53;;;;;;;10.13;6.03;;;;;;;9.98;100.00;101363.63;2079816;28;20185;-62
2024/03/03 04:21:53;;;;;;;9.77;6.17;;;;;;;10.03;100.00;101367.91;2082954;28;20180;-63
2024/03/03 04:22:54;;;;;;;12.50;6.37;;;;;;;10.05;100.00;101371.88;2082749;28;20212;-63
2024/03/03 04:23:54;;;;;;;10.67;6.27;;;;;;;10.06;100.00;101367.94;2082810;28;20190;-63
2024/03/03 04:24:55;;;;;;;9.47;5.60;;;;;;;10.08;100.00;101367.50;2082812;28;20181;-62
2024/03/03 04:25:55;;;;;;;9.70;6.10;;;;;;;10.08;100.00;101365.53;2082548;28;20181;-63
2024/03/03 04:26:56;;;;;;;9.77;5.97;;;;;;;10.10;100.00;101365.13;2081887;28;20185;-63
2024/03/03 04:27:56;;;;;;;6.43;5.33;;;;;;;10.01;100.00;101350.94;2082619;28;20188;-63
2024/03/03 04:28:57;;;;;;;12.27;6.80;;;;;;;9.57;100.00;101290.84;2082739;28;20581;-63
2024/03/03 04:29:58;;;;;;;9.13;6.07;;;;;;;9.81;100.00;101320.28;2081066;28;20627;-62
2024/03/03 04:30:58;;;;;;;10.30;6.33;;;;;;;10.08;100.00;101368.31;2078609;28;20968;-63
2024/03/03 04:31:59;;;;;;;10.93;6.07;;;;;;;9.98;100.00;101363.63;2090341;28;20180;-63
2024/03/03 04:32:59;;;;;;;10.80;6.30;;;;;;;10.06;100.00;101367.94;2090437;28;20681;-63
2024/03/03 04:34:00;;;;;;;9.33;5.93;;;;;;;10.11;100.00;101369.47;2082762;28;20191;-63
2024/03/03 04:35:01;;;;;;;12.87;6.77;;;;;;;10.13;100.00;101372.59;2083008;28;20197;-63
2024/03/03 04:36:01;;;;;;;10.93;5.93;;;;;;;9.31;100.00;101236.16;2082687;28;20177;-63
2024/03/03 04:37:02;;;;;;;7.83;5.63;;;;;;;10.18;100.00;101374.91;2082717;28;20177;-63
2024/03/03 04:38:02;;;;;;;8.97;6.20;;;;;;;10.17;100.00;101373.34;2082386;28;20223;-63
2024/03/03 04:39:07;;;;;;;8.80;6.37;;;;;;;10.12;100.00;101387.66;2082614;28;20662;-63
2024/03/03 04:40:08;;;;;;;7.17;5.07;;;;;;;9.10;100.00;101199.59;2082648;28;20173;-63
2024/03/03 04:41:15;;;;;;;10.10;5.80;;;;;;;10.20;100.00;101367.78;2082468;28;20569;-63
2024/03/03 04:42:16;;;;;;;11.27;6.80;;;;;;;10.23;100.00;101368.94;2082485;28;20423;-63